Portada
METAR-TAF:

METAR-TAF

Aeropuertos :

Aeropuerto Internacional de Lárnaca

Lárnaca, Chipre

latitud: 34-53N, longitud: 033-38E, altitud: 2 m

Observación

El informe se hizo hace 16 minutos, a las 06:00 UTC
Viento 6 kt del noreste
Temperatura 23°C
Humedad 69%
Presión 1005 hPa
Visibilidad 10 km o más
Escasas nubes a una altura de 2500 ft
Nubes dispersas a una altura de 4000 ft

METAR: LCLK 020600Z 05006KT 9999 FEW025 SCT040 23/17 Q1005 NOSIG

Hora: 09:16 (06:16 UTC)

Pronóstico

El informe se hizo hace 46 minutos, a las 05:30 UTC
Pronóstico válido del 02 a las 06 UTC al 03 a las 06 UTC
Viento 10 kt del sureste
Visibilidad 10 km o más
Escasas nubes a una altura de 2500 ft
Evolucionando progresivamente
del 02 a las 08 UTC al 02 a las 10 UTC
Viento 20 kt del suroeste
Evolucionando progresivamente
del 02 a las 15 UTC al 02 a las 19 UTC
Viento 9 kt del oeste

TAF: LCLK 020530Z 0206/0306 14010KT 9999 FEW025 BECMG 0208/0210 22020KT BECMG 0215/0219 28009KT

Observaciones y pronósticos meteorológicos de más de 4000 aeropuertos (mensajes METAR y TAF).

Los puntos amarillos y rojos representan las estaciones disponibles.

Ponga el ratón en el punto deseado para ver el nombre de la estación.

Haga clic para ver las observaciones y los pronósticos meteorológicos.

Para cambiar el mapa : haga clic en los botones verdes con una cruz de color negro para hacer un zoom, en el botón verde con un guión para alejar o en las flechas verdes para mapas adyacentes.


METAR-TAF: